Latest Weather Observations for Point Wilson

IDV60801

Issued at 8:31 am EST Sunday 1 May 2016 (issued every 30 minutes, with the page automatically refreshed every 10 minutes)

About weather observations | Map of weather stations | Latest weather observations for VIC | Other Formats
Station Details ID: 087166 Name: POINT WILSON Lat: -38.10 Lon: 144.54 Height: 18.0 m
Data from the previous 72 hours. | See also: Recent months for locations in Victoria
Date/Time
EST
Temp
°C
App
Temp
°C
Dew
Point
Rel
Hum
%
Delta-T
°C
Wind Press
QNH
hPa
Press
MSL
hPa
Rain
since 9 am
mm
Dir
 
Spd
km/h
Gust
km/h
Spd
kts
Gust
kts
01/08:30am - - - - - WNW 39 46 21 25 - - -
01/08:00am - - - - - NW 54 69 29 37 - - -
01/07:52am - - - - - NW 57 70 31 38 - - -
01/07:43am - - - - - WNW 56 74 30 40 - - -
01/07:40am - - - - - WNW 63 74 34 40 - - -
01/07:38am - - - - - WNW 37 67 20 36 - - -
01/07:30am - - - - - NW 35 41 19 22 - - -
01/07:00am - - - - - NW 37 46 20 25 - - -
01/06:58am - - - - - NW 37 46 20 25 - - -
01/06:30am - - - - - NNW 28 32 15 17 - - -
01/06:00am - - - - - N 26 28 14 15 - - -
01/05:30am - - - - - N 26 33 14 18 - - -
01/05:00am - - - - - N 24 30 13 16 - - -
01/04:30am - - - - - N 22 28 12 15 - - -
01/04:00am - - - - - NNW 19 22 10 12 - - -
01/03:58am - - - - - NNW 17 22 9 12 - - -
01/03:30am - - - - - NW 37 44 20 24 - - -
01/03:00am - - - - - NNW 39 50 21 27 - - -
01/02:45am - - - - - NW 50 69 27 37 - - -
01/02:30am - - - - - N 22 35 12 19 - - -
01/02:00am - - - - - NW 26 54 14 29 - - -
01/01:50am - - - - - NW 48 54 26 29 - - -
01/01:30am - - - - - N 46 54 25 29 - - -
01/01:00am - - - - - N 48 59 26 32 - - -
01/12:30am - - - - - N 41 46 22 25 - - -
01/12:00am - - - - - N 39 44 21 24 - - -
 
Date/Time
EST
Temp
°C
App
Temp
°C
Dew
Point
Rel
Hum
%
Delta-T
°C
Wind Press
QNH
hPa
Press
MSL
hPa
Rain
since 9 am
mm
Dir
 
Spd
km/h
Gust
km/h
Spd
kts
Gust
kts
30/11:30pm - - - - - N 33 41 18 22 - - -
30/11:00pm - - - - - N 28 32 15 17 - - -
30/10:30pm - - - - - N 30 35 16 19 - - -
30/10:00pm - - - - - N 35 41 19 22 - - -
30/09:30pm - - - - - N 30 33 16 18 - - -
30/09:00pm - - - - - NNE 30 33 16 18 - - -
30/08:30pm - - - - - N 28 32 15 17 - - -
30/08:00pm - - - - - N 26 30 14 16 - - -
30/07:30pm - - - - - N 26 28 14 15 - - -
30/07:00pm - - - - - N 28 32 15 17 - - -
30/06:30pm - - - - - N 26 28 14 15 - - -
30/06:00pm - - - - - N 28 32 15 17 - - -
30/05:30pm - - - - - N 24 30 13 16 - - -
30/05:00pm - - - - - N 32 41 17 22 - - -
30/04:30pm - - - - - N 30 37 16 20 - - -
30/04:00pm - - - - - NNW 28 35 15 19 - - -
30/03:30pm - - - - - NNW 32 37 17 20 - - -
30/03:00pm - - - - - N 32 37 17 20 - - -
30/02:30pm - - - - - N 37 48 20 26 - - -
30/02:00pm - - - - - N 32 39 17 21 - - -
30/01:30pm - - - - - N 33 41 18 22 - - -
30/01:00pm - - - - - N 28 37 15 20 - - -
30/12:30pm - - - - - N 33 43 18 23 - - -
30/12:00pm - - - - - N 35 41 19 22 - - -
30/11:30am - - - - - N 35 43 19 23 - - -
30/11:00am - - - - - N 33 43 18 23 - - -
30/10:30am - - - - - N 43 52 23 28 - - -
30/10:00am - - - - - N 39 46 21 25 - - -
30/09:30am - - - - - N 39 43 21 23 - - -
30/09:00am - - - - - N 33 39 18 21 - - -
30/08:30am - - - - - N 32 35 17 19 - - -
30/08:00am - - - - - N 30 33 16 18 - - -
30/07:30am - - - - - N 24 28 13 15 - - -
30/07:00am - - - - - N 22 26 12 14 - - -
30/06:30am - - - - - N 24 26 13 14 - - -
30/06:00am - - - - - N 19 20 10 11 - - -
30/05:30am - - - - - N 17 20 9 11 - - -
30/05:00am - - - - - N 20 26 11 14 - - -
30/04:30am - - - - - N 17 20 9 11 - - -
30/04:00am - - - - - N 15 17 8 9 - - -
30/03:30am - - - - - NNE 19 20 10 11 - - -
30/03:00am - - - - - NE 13 15 7 8 - - -
30/02:30am - - - - - NNE 9 11 5 6 - - -
30/02:00am - - - - - N 9 13 5 7 - - -
30/01:30am - - - - - N 9 11 5 6 - - -
30/01:00am - - - - - N 11 11 6 6 - - -
30/12:30am - - - - - NNW 9 11 5 6 - - -
30/12:00am - - - - - N 15 17 8 9 - - -
 
Date/Time
EST
Temp
°C
App
Temp
°C
Dew
Point
Rel
Hum
%
Delta-T
°C
Wind Press
QNH
hPa
Press
MSL
hPa
Rain
since 9 am
mm
Dir
 
Spd
km/h
Gust
km/h
Spd
kts
Gust
kts
29/11:30pm - - - - - N 19 20 10 11 - - -
29/11:00pm - - - - - N 24 28 13 15 - - -
29/10:30pm - - - - - N 17 20 9 11 - - -
29/10:00pm - - - - - N 17 20 9 11 - - -
29/09:30pm - - - - - N 17 20 9 11 - - -
29/09:00pm - - - - - N 17 19 9 10 - - -
29/08:30pm - - - - - N 17 19 9 10 - - -
29/08:00pm - - - - - N 20 24 11 13 - - -
29/07:30pm - - - - - N 17 22 9 12 - - -
29/07:00pm - - - - - N 22 26 12 14 - - -
29/06:30pm - - - - - NNE 24 26 13 14 - - -
29/06:00pm - - - - - NNE 22 28 12 15 - - -
29/05:30pm - - - - - NNE 20 24 11 13 - - -
29/05:00pm - - - - - NNE 24 28 13 15 - - -
29/04:30pm - - - - - N 28 32 15 17 - - -
29/04:00pm - - - - - NNE 30 35 16 19 - - -
29/03:30pm - - - - - NNE 35 39 19 21 - - -
29/03:00pm - - - - - NNE 35 41 19 22 - - -
29/02:30pm - - - - - NNE 33 39 18 21 - - -
29/02:00pm - - - - - NNE 30 33 16 18 - - -
29/01:30pm - - - - - NNE 24 26 13 14 - - -
29/01:00pm - - - - - NNE 20 22 11 12 - - -
29/12:30pm - - - - - NNE 17 19 9 10 - - -
29/12:00pm - - - - - N 15 17 8 9 - - -
29/11:30am - - - - - NNW 15 20 8 11 - - -
29/11:00am - - - - - N 13 15 7 8 - - -
29/10:30am - - - - - NNE 20 26 11 14 - - -
29/10:00am - - - - - NNE 24 30 13 16 - - -
29/09:30am - - - - - N 28 32 15 17 - - -
29/09:00am - - - - - N 22 28 12 15 - - -
29/08:30am - - - - - N 17 22 9 12 - - -
29/08:00am - - - - - N 11 13 6 7 - - -
29/07:30am - - - - - WSW 6 11 3 6 - - -
29/07:00am - - - - - NE 2 11 1 6 - - -
29/06:30am - - - - - CALM 0 0 0 0 - - -
29/06:00am - - - - - NNW 7 11 4 6 - - -
29/05:30am - - - - - N 9 13 5 7 - - -
29/05:00am - - - - - NNE 15 19 8 10 - - -
29/04:30am - - - - - NE 13 17 7 9 - - -
29/04:00am - - - - - NNE 15 19 8 10 - - -
29/03:30am - - - - - N 13 15 7 8 - - -
29/03:00am - - - - - NNE 13 15 7 8 - - -
29/02:30am - - - - - NE 11 13 6 7 - - -
29/02:00am - - - - - NE 13 15 7 8 - - -
29/01:30am - - - - - NNE 9 11 5 6 - - -
29/01:00am - - - - - N 9 11 5 6 - - -
29/12:30am - - - - - N 13 15 7 8 - - -
29/12:00am - - - - - N 15 17 8 9 - - -
 
Date/Time
EST
Temp
°C
App
Temp
°C
Dew
Point
Rel
Hum
%
Delta-T
°C
Wind Press
QNH
hPa
Press
MSL
hPa
Rain
since 9 am
mm
Dir
 
Spd
km/h
Gust
km/h
Spd
kts
Gust
kts
28/11:30pm - - - - - N 17 20 9 11 - - -
28/11:00pm - - - - - N 15 17 8 9 - - -
28/10:30pm - - - - - N 15 19 8 10 - - -
28/10:00pm - - - - - N 11 15 6 8 - - -
28/09:30pm - - - - - S 4 11 2 6 - - -
28/09:00pm - - - - - S 2 6 1 3 - - -
28/08:30pm - - - - - SSW 7 9 4 5 - - -
28/08:00pm - - - - - S 11 13 6 7 - - -
28/07:30pm - - - - - SSW 15 17 8 9 - - -
28/07:00pm - - - - - S 19 22 10 12 - - -
28/06:30pm - - - - - S 13 17 7 9 - - -
28/06:00pm - - - - - SSW 13 17 7 9 - - -
28/05:30pm - - - - - SW 11 13 6 7 - - -
28/05:00pm - - - - - CALM 0 0 0 0 - - -
28/04:30pm - - - - - E 9 11 5 6 - - -
28/04:00pm - - - - - S 9 15 5 8 - - -
28/03:30pm - - - - - ENE 19 20 10 11 - - -
28/03:00pm - - - - - NNE 9 11 5 6 - - -
28/02:30pm - - - - - N 17 19 9 10 - - -
28/02:00pm - - - - - WNW 9 11 5 6 - - -
28/01:30pm - - - - - N 13 20 7 11 - - -
28/01:00pm - - - - - N 13 15 7 8 - - -
28/12:30pm - - - - - N 13 17 7 9 - - -
28/12:00pm - - - - - N 17 19 9 10 - - -
28/11:30am - - - - - N 13 17 7 9 - - -
28/11:00am - - - - - N 11 17 6 9 - - -
28/10:30am - - - - - N 7 9 4 5 - - -
28/10:00am - - - - - NNW 9 11 5 6 - - -
28/09:30am - - - - - W 13 20 7 11 - - -
28/09:00am - - - - - NW 22 24 12 13 - - -

Other Formats:

Comma delimited format used in spreadsheet applications
http://www.bom.gov.au/fwo/IDV60801/IDV60801.94847.axf

JavaScript Object Notation format (JSON) in row-major order
http://www.bom.gov.au/fwo/IDV60801/IDV60801.94847.json